sensor_id;sensor_type;location;lat;lon;timestamp;P1;durP1;ratioP1;P2;durP2;ratioP2
47155;SDS011;32908;52.344;16.858;2022-10-24T00:01:39;17.00;;;11.40;;
47155;SDS011;32908;52.344;16.858;2022-10-24T00:04:07;16.93;;;11.30;;
47155;SDS011;32908;52.344;16.858;2022-10-24T00:06:34;16.90;;;11.83;;
47155;SDS011;32908;52.344;16.858;2022-10-24T08:32:30;10.83;;;7.40;;
47155;SDS011;32908;52.344;16.858;2022-10-24T08:34:58;8.13;;;6.63;;
47155;SDS011;32908;52.344;16.858;2022-10-24T08:37:26;9.77;;;6.07;;
47155;SDS011;32908;52.344;16.858;2022-10-24T08:39:54;12.75;;;7.10;;
47155;SDS011;32908;52.344;16.858;2022-10-24T08:42:22;12.30;;;6.20;;
47155;SDS011;32908;52.344;16.858;2022-10-24T08:44:51;9.67;;;7.00;;
47155;SDS011;32908;52.344;16.858;2022-10-24T08:47:21;8.60;;;6.80;;
47155;SDS011;32908;52.344;16.858;2022-10-24T08:49:56;9.63;;;6.90;;
47155;SDS011;32908;52.344;16.858;2022-10-24T08:52:28;12.00;;;6.70;;
47155;SDS011;32908;52.344;16.858;2022-10-24T08:54:58;12.73;;;7.13;;
47155;SDS011;32908;52.344;16.858;2022-10-24T08:57:30;9.67;;;6.70;;
47155;SDS011;32908;52.344;16.858;2022-10-24T09:00:00;12.00;;;7.47;;
47155;SDS011;32908;52.344;16.858;2022-10-24T09:02:35;14.30;;;7.55;;
47155;SDS011;32908;52.344;16.858;2022-10-24T09:05:13;12.17;;;7.23;;
47155;SDS011;32908;52.344;16.858;2022-10-24T09:07:46;9.80;;;7.03;;
47155;SDS011;32908;52.344;16.858;2022-10-24T09:10:16;9.50;;;6.90;;
47155;SDS011;32908;52.344;16.858;2022-10-24T09:12:46;11.13;;;6.60;;
47155;SDS011;32908;52.344;16.858;2022-10-24T09:15:14;10.50;;;7.97;;
47155;SDS011;32908;52.344;16.858;2022-10-24T09:17:47;9.10;;;6.63;;
47155;SDS011;32908;52.344;16.858;2022-10-24T09:20:20;12.05;;;7.30;;
47155;SDS011;32908;52.344;16.858;2022-10-24T09:22:50;10.15;;;7.75;;
47155;SDS011;32908;52.344;16.858;2022-10-24T09:25:20;9.30;;;7.33;;
47155;SDS011;32908;52.344;16.858;2022-10-24T09:27:49;11.50;;;7.23;;
47155;SDS011;32908;52.344;16.858;2022-10-24T09:30:18;14.17;;;7.67;;
47155;SDS011;32908;52.344;16.858;2022-10-24T09:32:47;11.65;;;7.65;;
47155;SDS011;32908;52.344;16.858;2022-10-24T09:35:16;9.10;;;7.00;;
47155;SDS011;32908;52.344;16.858;2022-10-24T09:37:47;12.60;;;6.90;;
47155;SDS011;32908;52.344;16.858;2022-10-24T09:40:17;13.53;;;6.50;;
47155;SDS011;32908;52.344;16.858;2022-10-24T09:42:48;7.47;;;6.20;;
47155;SDS011;32908;52.344;16.858;2022-10-24T09:45:23;8.97;;;6.30;;
47155;SDS011;32908;52.344;16.858;2022-10-24T09:48:02;8.03;;;5.93;;
47155;SDS011;32908;52.344;16.858;2022-10-24T09:50:33;10.40;;;6.33;;
47155;SDS011;32908;52.344;16.858;2022-10-24T09:53:01;15.47;;;5.97;;
47155;SDS011;32908;52.344;16.858;2022-10-24T09:55:30;7.40;;;5.90;;
47155;SDS011;32908;52.344;16.858;2022-10-24T09:57:59;9.43;;;5.80;;
47155;SDS011;32908;52.344;16.858;2022-10-24T10:00:31;9.23;;;5.97;;
47155;SDS011;32908;52.344;16.858;2022-10-24T10:03:02;10.80;;;5.53;;
47155;SDS011;32908;52.344;16.858;2022-10-24T10:05:45;9.93;;;5.80;;
47155;SDS011;32908;52.344;16.858;2022-10-24T10:08:18;10.70;;;6.60;;
47155;SDS011;32908;52.344;16.858;2022-10-24T10:11:01;10.20;;;5.37;;
47155;SDS011;32908;52.344;16.858;2022-10-24T10:13:31;9.03;;;6.07;;
47155;SDS011;32908;52.344;16.858;2022-10-24T10:16:04;8.83;;;6.20;;
47155;SDS011;32908;52.344;16.858;2022-10-24T10:18:40;12.07;;;5.57;;
47155;SDS011;32908;52.344;16.858;2022-10-24T10:21:11;9.00;;;5.23;;
47155;SDS011;32908;52.344;16.858;2022-10-24T10:23:42;10.77;;;5.60;;
47155;SDS011;32908;52.344;16.858;2022-10-24T10:26:15;8.75;;;5.00;;
47155;SDS011;32908;52.344;16.858;2022-10-24T10:28:49;8.50;;;5.37;;
47155;SDS011;32908;52.344;16.858;2022-10-24T10:31:20;10.20;;;6.47;;
47155;SDS011;32908;52.344;16.858;2022-10-24T15:49:32;16.03;;;6.07;;
47155;SDS011;32908;52.344;16.858;2022-10-24T15:52:00;16.05;;;6.50;;
47155;SDS011;32908;52.344;16.858;2022-10-24T15:54:31;13.30;;;7.07;;
47155;SDS011;32908;52.344;16.858;2022-10-24T15:56:59;15.53;;;9.50;;
47155;SDS011;32908;52.344;16.858;2022-10-24T15:59:27;19.20;;;9.15;;
47155;SDS011;32908;52.344;16.858;2022-10-24T16:01:55;18.90;;;10.40;;
47155;SDS011;32908;52.344;16.858;2022-10-24T16:04:25;22.23;;;12.50;;
47155;SDS011;32908;52.344;16.858;2022-10-24T16:06:54;25.53;;;13.40;;
47155;SDS011;32908;52.344;16.858;2022-10-24T16:09:22;16.77;;;9.27;;
47155;SDS011;32908;52.344;16.858;2022-10-24T16:11:53;15.77;;;6.20;;
47155;SDS011;32908;52.344;16.858;2022-10-24T16:14:21;9.83;;;5.37;;
47155;SDS011;32908;52.344;16.858;2022-10-24T16:16:51;9.93;;;5.40;;
47155;SDS011;32908;52.344;16.858;2022-10-24T16:19:20;9.30;;;5.47;;
47155;SDS011;32908;52.344;16.858;2022-10-24T16:21:48;13.07;;;5.23;;
47155;SDS011;32908;52.344;16.858;2022-10-24T16:24:16;10.67;;;4.77;;
47155;SDS011;32908;52.344;16.858;2022-10-24T16:26:44;11.80;;;5.17;;
47155;SDS011;32908;52.344;16.858;2022-10-24T16:29:12;8.30;;;4.95;;
47155;SDS011;32908;52.344;16.858;2022-10-24T16:31:40;10.67;;;5.03;;
47155;SDS011;32908;52.344;16.858;2022-10-24T16:34:10;8.13;;;6.13;;
47155;SDS011;32908;52.344;16.858;2022-10-24T16:36:38;13.10;;;6.47;;
47155;SDS011;32908;52.344;16.858;2022-10-24T16:39:06;11.55;;;7.15;;
47155;SDS011;32908;52.344;16.858;2022-10-24T16:41:34;18.23;;;7.80;;
47155;SDS011;32908;52.344;16.858;2022-10-24T16:44:02;10.23;;;6.47;;
47155;SDS011;32908;52.344;16.858;2022-10-24T16:46:30;13.27;;;7.23;;
47155;SDS011;32908;52.344;16.858;2022-10-24T16:48:58;13.37;;;6.93;;
47155;SDS011;32908;52.344;16.858;2022-10-24T16:51:26;9.23;;;5.60;;
47155;SDS011;32908;52.344;16.858;2022-10-24T16:53:57;17.13;;;5.93;;
47155;SDS011;32908;52.344;16.858;2022-10-24T16:56:25;15.00;;;6.17;;
47155;SDS011;32908;52.344;16.858;2022-10-24T16:58:53;11.40;;;6.07;;
47155;SDS011;32908;52.344;16.858;2022-10-24T17:01:21;9.33;;;5.17;;
47155;SDS011;32908;52.344;16.858;2022-10-24T17:03:51;10.17;;;5.20;;
47155;SDS011;32908;52.344;16.858;2022-10-24T17:06:19;12.80;;;5.13;;
47155;SDS011;32908;52.344;16.858;2022-10-24T17:08:47;11.33;;;5.30;;
47155;SDS011;32908;52.344;16.858;2022-10-24T17:11:15;9.43;;;5.53;;
47155;SDS011;32908;52.344;16.858;2022-10-24T17:13:43;14.27;;;9.23;;
47155;SDS011;32908;52.344;16.858;2022-10-24T17:16:11;19.07;;;12.87;;
47155;SDS011;32908;52.344;16.858;2022-10-24T17:18:39;20.77;;;13.43;;
47155;SDS011;32908;52.344;16.858;2022-10-24T17:21:07;20.43;;;13.03;;
47155;SDS011;32908;52.344;16.858;2022-10-24T17:23:36;19.77;;;9.10;;
47155;SDS011;32908;52.344;16.858;2022-10-24T17:26:04;15.63;;;7.93;;
47155;SDS011;32908;52.344;16.858;2022-10-24T17:28:40;14.10;;;8.57;;
47155;SDS011;32908;52.344;16.858;2022-10-24T17:31:11;14.03;;;8.53;;
47155;SDS011;32908;52.344;16.858;2022-10-24T17:33:40;12.37;;;7.70;;
47155;SDS011;32908;52.344;16.858;2022-10-24T17:36:12;12.95;;;6.85;;
47155;SDS011;32908;52.344;16.858;2022-10-24T17:38:45;9.23;;;4.90;;
47155;SDS011;32908;52.344;16.858;2022-10-24T17:41:19;8.00;;;4.87;;
47155;SDS011;32908;52.344;16.858;2022-10-24T17:43:50;14.30;;;6.10;;
47155;SDS011;32908;52.344;16.858;2022-10-24T17:46:19;13.17;;;7.77;;
47155;SDS011;32908;52.344;16.858;2022-10-24T17:48:48;13.13;;;6.47;;
47155;SDS011;32908;52.344;16.858;2022-10-24T18:08:52;10.50;;;4.83;;
47155;SDS011;32908;52.344;16.858;2022-10-24T18:11:23;10.03;;;4.30;;
47155;SDS011;32908;52.344;16.858;2022-10-24T18:13:52;10.40;;;4.90;;
47155;SDS011;32908;52.344;16.858;2022-10-24T18:16:21;8.93;;;4.27;;
47155;SDS011;32908;52.344;16.858;2022-10-24T18:18:49;9.47;;;4.07;;
47155;SDS011;32908;52.344;16.858;2022-10-24T18:21:20;16.45;;;7.05;;
47155;SDS011;32908;52.344;16.858;2022-10-24T18:23:51;10.97;;;5.63;;
47155;SDS011;32908;52.344;16.858;2022-10-24T18:26:22;9.97;;;5.33;;
47155;SDS011;32908;52.344;16.858;2022-10-24T18:28:53;16.40;;;6.45;;
47155;SDS011;32908;52.344;16.858;2022-10-24T18:31:25;22.35;;;9.45;;
47155;SDS011;32908;52.344;16.858;2022-10-24T18:33:58;25.90;;;12.27;;
47155;SDS011;32908;52.344;16.858;2022-10-24T18:36:29;21.00;;;10.23;;
47155;SDS011;32908;52.344;16.858;2022-10-24T18:38:59;18.27;;;8.13;;
47155;SDS011;32908;52.344;16.858;2022-10-24T18:41:38;16.30;;;8.03;;
47155;SDS011;32908;52.344;16.858;2022-10-24T18:44:23;20.70;;;9.03;;
47155;SDS011;32908;52.344;16.858;2022-10-24T18:46:56;13.30;;;8.40;;
47155;SDS011;32908;52.344;16.858;2022-10-24T18:49:29;19.33;;;10.13;;
47155;SDS011;32908;52.344;16.858;2022-10-24T18:52:05;17.60;;;10.23;;
47155;SDS011;32908;52.344;16.858;2022-10-24T18:54:42;31.97;;;19.80;;
47155;SDS011;32908;52.344;16.858;2022-10-24T18:57:22;20.95;;;13.50;;
47155;SDS011;32908;52.344;16.858;2022-10-24T18:59:53;18.17;;;10.07;;
47155;SDS011;32908;52.344;16.858;2022-10-24T19:02:25;19.30;;;10.90;;
47155;SDS011;32908;52.344;16.858;2022-10-24T19:05:06;15.45;;;8.30;;
47155;SDS011;32908;52.344;16.858;2022-10-24T19:07:46;16.35;;;7.50;;
47155;SDS011;32908;52.344;16.858;2022-10-24T19:10:18;14.23;;;7.90;;
47155;SDS011;32908;52.344;16.858;2022-10-24T19:12:51;13.20;;;6.00;;
47155;SDS011;32908;52.344;16.858;2022-10-24T19:15:22;14.00;;;6.63;;
47155;SDS011;32908;52.344;16.858;2022-10-24T19:17:55;10.53;;;5.83;;
47155;SDS011;32908;52.344;16.858;2022-10-24T19:20:25;10.97;;;5.43;;
47155;SDS011;32908;52.344;16.858;2022-10-24T19:22:59;14.77;;;5.23;;
47155;SDS011;32908;52.344;16.858;2022-10-24T19:25:32;10.83;;;4.97;;
47155;SDS011;32908;52.344;16.858;2022-10-24T19:28:01;10.23;;;4.80;;
47155;SDS011;32908;52.344;16.858;2022-10-24T19:30:32;9.57;;;4.70;;
47155;SDS011;32908;52.344;16.858;2022-10-24T19:33:04;10.67;;;4.80;;
47155;SDS011;32908;52.344;16.858;2022-10-24T19:35:35;10.17;;;4.80;;
47155;SDS011;32908;52.344;16.858;2022-10-24T19:38:07;6.37;;;4.63;;
47155;SDS011;32908;52.344;16.858;2022-10-24T19:40:42;9.20;;;5.00;;
47155;SDS011;32908;52.344;16.858;2022-10-24T19:43:13;9.50;;;5.10;;
47155;SDS011;32908;52.344;16.858;2022-10-24T19:45:44;11.63;;;5.53;;
47155;SDS011;32908;52.344;16.858;2022-10-24T19:48:15;7.97;;;4.87;;
47155;SDS011;32908;52.344;16.858;2022-10-24T19:50:45;11.93;;;5.20;;
47155;SDS011;32908;52.344;16.858;2022-10-24T19:53:16;9.77;;;5.33;;
47155;SDS011;32908;52.344;16.858;2022-10-24T19:55:46;9.90;;;5.90;;
47155;SDS011;32908;52.344;16.858;2022-10-24T19:58:16;10.17;;;4.63;;
47155;SDS011;32908;52.344;16.858;2022-10-24T20:00:46;11.43;;;4.93;;
47155;SDS011;32908;52.344;16.858;2022-10-24T20:03:14;5.73;;;4.60;;
47155;SDS011;32908;52.344;16.858;2022-10-24T20:05:42;9.50;;;5.20;;
47155;SDS011;32908;52.344;16.858;2022-10-24T20:08:12;9.80;;;4.60;;
47155;SDS011;32908;52.344;16.858;2022-10-24T20:10:40;8.63;;;4.63;;
47155;SDS011;32908;52.344;16.858;2022-10-24T20:13:07;10.83;;;5.37;;
47155;SDS011;32908;52.344;16.858;2022-10-24T20:15:35;6.83;;;4.20;;
47155;SDS011;32908;52.344;16.858;2022-10-24T20:18:03;9.47;;;4.50;;
47155;SDS011;32908;52.344;16.858;2022-10-24T20:20:32;10.20;;;5.37;;
47155;SDS011;32908;52.344;16.858;2022-10-24T20:23:01;11.73;;;5.20;;
47155;SDS011;32908;52.344;16.858;2022-10-24T20:25:28;12.27;;;4.83;;
47155;SDS011;32908;52.344;16.858;2022-10-24T20:27:57;8.93;;;5.07;;
47155;SDS011;32908;52.344;16.858;2022-10-24T20:30:24;11.30;;;5.10;;
47155;SDS011;32908;52.344;16.858;2022-10-24T20:32:53;9.35;;;4.75;;
47155;SDS011;32908;52.344;16.858;2022-10-24T20:35:20;9.23;;;5.63;;
47155;SDS011;32908;52.344;16.858;2022-10-24T20:37:48;15.83;;;7.83;;
47155;SDS011;32908;52.344;16.858;2022-10-24T20:40:16;11.23;;;7.70;;
47155;SDS011;32908;52.344;16.858;2022-10-24T20:42:45;9.87;;;6.07;;
47155;SDS011;32908;52.344;16.858;2022-10-24T20:45:14;13.00;;;7.43;;
47155;SDS011;32908;52.344;16.858;2022-10-24T20:47:43;15.80;;;8.33;;
47155;SDS011;32908;52.344;16.858;2022-10-24T20:50:11;18.63;;;8.23;;
47155;SDS011;32908;52.344;16.858;2022-10-24T20:52:39;12.47;;;7.20;;
47155;SDS011;32908;52.344;16.858;2022-10-24T20:55:07;16.93;;;8.87;;
47155;SDS011;32908;52.344;16.858;2022-10-24T20:57:35;20.40;;;10.93;;
47155;SDS011;32908;52.344;16.858;2022-10-24T21:00:05;19.30;;;10.90;;
47155;SDS011;32908;52.344;16.858;2022-10-24T21:02:35;17.17;;;11.30;;
47155;SDS011;32908;52.344;16.858;2022-10-24T21:05:03;23.07;;;11.47;;
47155;SDS011;32908;52.344;16.858;2022-10-24T21:07:32;20.93;;;11.30;;
47155;SDS011;32908;52.344;16.858;2022-10-24T21:10:00;15.67;;;9.70;;
47155;SDS011;32908;52.344;16.858;2022-10-24T21:12:28;13.90;;;8.63;;
47155;SDS011;32908;52.344;16.858;2022-10-24T21:14:57;10.23;;;6.50;;
47155;SDS011;32908;52.344;16.858;2022-10-24T21:17:25;8.63;;;5.97;;
47155;SDS011;32908;52.344;16.858;2022-10-24T21:19:53;8.37;;;5.07;;
47155;SDS011;32908;52.344;16.858;2022-10-24T21:22:20;7.03;;;4.93;;
47155;SDS011;32908;52.344;16.858;2022-10-24T21:24:48;9.90;;;5.63;;
47155;SDS011;32908;52.344;16.858;2022-10-24T21:27:16;9.17;;;5.07;;
47155;SDS011;32908;52.344;16.858;2022-10-24T21:29:44;10.13;;;5.03;;
47155;SDS011;32908;52.344;16.858;2022-10-24T21:32:12;8.63;;;4.50;;
47155;SDS011;32908;52.344;16.858;2022-10-24T21:34:39;11.10;;;4.97;;
47155;SDS011;32908;52.344;16.858;2022-10-24T21:37:07;9.27;;;4.90;;
47155;SDS011;32908;52.344;16.858;2022-10-24T21:39:35;11.25;;;5.25;;
47155;SDS011;32908;52.344;16.858;2022-10-24T21:42:03;9.40;;;4.70;;
47155;SDS011;32908;52.344;16.858;2022-10-24T21:44:31;9.35;;;4.45;;
47155;SDS011;32908;52.344;16.858;2022-10-24T21:47:00;10.50;;;4.25;;
47155;SDS011;32908;52.344;16.858;2022-10-24T21:49:28;5.97;;;3.57;;
47155;SDS011;32908;52.344;16.858;2022-10-24T21:51:56;10.87;;;4.20;;
47155;SDS011;32908;52.344;16.858;2022-10-24T21:54:23;7.77;;;4.13;;
47155;SDS011;32908;52.344;16.858;2022-10-24T21:56:52;6.60;;;4.47;;
47155;SDS011;32908;52.344;16.858;2022-10-24T21:59:20;6.53;;;3.87;;
47155;SDS011;32908;52.344;16.858;2022-10-24T22:01:49;6.43;;;4.50;;
47155;SDS011;32908;52.344;16.858;2022-10-24T22:04:17;7.20;;;4.37;;
47155;SDS011;32908;52.344;16.858;2022-10-24T22:06:45;9.87;;;4.77;;
47155;SDS011;32908;52.344;16.858;2022-10-24T22:09:14;9.73;;;4.30;;
47155;SDS011;32908;52.344;16.858;2022-10-24T22:11:44;7.33;;;4.80;;
47155;SDS011;32908;52.344;16.858;2022-10-24T22:14:12;7.73;;;4.20;;
47155;SDS011;32908;52.344;16.858;2022-10-24T22:16:43;6.30;;;4.35;;
47155;SDS011;32908;52.344;16.858;2022-10-24T22:19:11;6.60;;;4.23;;
47155;SDS011;32908;52.344;16.858;2022-10-24T22:21:40;8.17;;;4.00;;
47155;SDS011;32908;52.344;16.858;2022-10-24T22:24:10;10.17;;;5.27;;
47155;SDS011;32908;52.344;16.858;2022-10-24T22:26:39;6.20;;;4.13;;
47155;SDS011;32908;52.344;16.858;2022-10-24T22:29:08;7.27;;;4.33;;
47155;SDS011;32908;52.344;16.858;2022-10-24T22:31:38;9.67;;;5.00;;
47155;SDS011;32908;52.344;16.858;2022-10-24T22:34:07;6.73;;;4.33;;
47155;SDS011;32908;52.344;16.858;2022-10-24T22:36:38;6.17;;;4.20;;
47155;SDS011;32908;52.344;16.858;2022-10-24T22:39:16;6.97;;;4.20;;
47155;SDS011;32908;52.344;16.858;2022-10-24T22:41:46;7.00;;;4.20;;
47155;SDS011;32908;52.344;16.858;2022-10-24T22:44:16;6.53;;;4.13;;
47155;SDS011;32908;52.344;16.858;2022-10-24T22:46:50;7.80;;;4.20;;
47155;SDS011;32908;52.344;16.858;2022-10-24T22:49:33;7.00;;;4.67;;
47155;SDS011;32908;52.344;16.858;2022-10-24T22:52:07;7.93;;;4.97;;
47155;SDS011;32908;52.344;16.858;2022-10-24T22:54:37;9.87;;;5.00;;
